createdAt,value
2022-09-02T00:00:41.633Z,18.02
2022-09-02T00:01:41.652Z,17.99
2022-09-02T00:02:41.742Z,18.14
2022-09-02T00:03:41.596Z,18.22
2022-09-02T00:04:41.591Z,18.24
2022-09-02T00:05:41.579Z,18.22
2022-09-02T00:06:41.573Z,18.17
2022-09-02T00:07:41.558Z,18.24
2022-09-02T00:08:41.547Z,18.17
2022-09-02T00:09:41.540Z,18.09
2022-09-02T00:10:41.527Z,18.13
2022-09-02T00:11:41.515Z,18.33
2022-09-02T00:12:41.503Z,18.37
2022-09-02T00:13:41.497Z,18.41
2022-09-02T00:14:41.484Z,18.37
2022-09-02T00:15:41.471Z,18.32
2022-09-02T00:16:41.524Z,18.24
2022-09-02T00:17:42.005Z,18.35
2022-09-02T00:18:45.767Z,18.33
2022-09-02T00:19:41.426Z,18.45
2022-09-02T00:20:41.621Z,18.48
2022-09-02T00:21:41.404Z,18.51
2022-09-02T00:22:41.397Z,18.54
2022-09-02T00:23:41.383Z,18.57
2022-09-02T00:24:41.377Z,18.66
2022-09-02T00:25:41.366Z,18.69
2022-09-02T00:26:41.351Z,18.66
2022-09-02T00:27:41.342Z,18.55
2022-09-02T00:28:48.916Z,18.55
2022-09-02T00:29:42.361Z,18.57
2022-09-02T00:30:41.511Z,18.54
2022-09-02T00:31:41.316Z,18.45
2022-09-02T00:32:41.294Z,18.54
2022-09-02T00:33:41.327Z,18.51
2022-09-02T00:34:41.266Z,18.54
2022-09-02T00:35:41.252Z,18.47
2022-09-02T00:36:41.251Z,18.57
2022-09-02T00:37:41.237Z,18.66
2022-09-02T00:38:41.221Z,18.75
2022-09-02T00:39:41.210Z,18.76
2022-09-02T00:40:41.266Z,18.69
2022-09-02T00:41:41.189Z,18.65
2022-09-02T00:42:41.176Z,18.58
2022-09-02T00:43:41.172Z,18.52
2022-09-02T00:44:41.158Z,18.57
2022-09-02T00:45:41.379Z,18.54
2022-09-02T00:46:41.141Z,18.54
2022-09-02T00:47:41.123Z,18.54
2022-09-02T00:48:41.116Z,18.52
2022-09-02T00:49:41.101Z,18.55
2022-09-02T00:50:41.097Z,18.58
2022-09-02T00:51:41.079Z,18.63
2022-09-02T00:52:41.067Z,18.63
2022-09-02T00:53:41.065Z,18.66
2022-09-02T00:54:41.050Z,18.65
2022-09-02T00:55:41.034Z,18.63
2022-09-02T00:56:41.231Z,18.60
2022-09-02T00:57:41.013Z,18.50
2022-09-02T00:58:41.007Z,18.41
2022-09-02T00:59:41.002Z,18.42
2022-09-02T01:00:41.121Z,18.29
2022-09-02T01:01:41.232Z,18.37
2022-09-02T01:02:40.967Z,18.41
2022-09-02T01:03:40.953Z,18.47
2022-09-02T01:04:40.939Z,18.41
2022-09-02T01:05:46.944Z,18.25
2022-09-02T01:06:40.922Z,18.14
2022-09-02T01:07:40.907Z,18.24
2022-09-02T01:08:40.902Z,18.22
2022-09-02T01:09:40.884Z,18.10
2022-09-02T01:10:40.872Z,18.01
2022-09-02T01:11:40.861Z,17.94
2022-09-02T01:12:40.854Z,17.88
2022-09-02T01:13:40.842Z,17.80
2022-09-02T01:14:40.828Z,17.69
2022-09-02T01:15:40.826Z,17.86
2022-09-02T01:16:42.183Z,18.09
2022-09-02T01:17:40.999Z,18.22
2022-09-02T01:18:40.787Z,18.26
2022-09-02T01:19:40.783Z,18.29
2022-09-02T01:20:40.764Z,18.24
2022-09-02T01:21:40.755Z,18.24
2022-09-02T01:22:40.745Z,18.24
2022-09-02T01:23:40.732Z,18.33
2022-09-02T01:24:40.933Z,18.29
2022-09-02T01:25:40.715Z,18.20
2022-09-02T01:26:40.706Z,18.17
2022-09-02T01:27:40.689Z,18.14
2022-09-02T01:28:40.681Z,18.10
2022-09-02T01:29:40.668Z,17.96
2022-09-02T01:30:40.659Z,17.88
2022-09-02T01:31:40.710Z,17.88
2022-09-02T01:32:40.640Z,17.91
2022-09-02T01:33:40.627Z,17.89
2022-09-02T01:34:40.616Z,17.94
2022-09-02T01:35:40.604Z,17.94
2022-09-02T01:36:40.598Z,17.83
2022-09-02T01:37:40.585Z,17.74
2022-09-02T01:38:40.573Z,17.63
2022-09-02T01:39:40.561Z,17.56
2022-09-02T01:40:40.570Z,17.49
2022-09-02T01:41:40.541Z,17.40
2022-09-02T01:42:40.527Z,17.38
2022-09-02T01:43:40.520Z,17.33
2022-09-02T01:44:40.505Z,17.34
2022-09-02T01:45:40.503Z,17.22
2022-09-02T01:46:40.604Z,17.26
2022-09-02T01:47:40.474Z,17.31
2022-09-02T01:48:40.513Z,17.33
2022-09-02T01:49:40.452Z,17.25
2022-09-02T01:50:45.091Z,17.19
2022-09-02T01:51:40.435Z,17.08
2022-09-02T01:52:40.418Z,16.93
2022-09-02T01:53:40.407Z,16.82
2022-09-02T01:54:40.402Z,16.67
2022-09-02T01:55:40.391Z,16.56
2022-09-02T01:56:40.376Z,16.48
2022-09-02T01:57:40.361Z,16.40
2022-09-02T01:58:40.356Z,16.40
2022-09-02T01:59:40.342Z,16.40
2022-09-02T02:00:40.398Z,16.40
2022-09-02T02:01:40.360Z,16.33
2022-09-02T02:02:40.317Z,16.22
2022-09-02T02:03:40.299Z,16.20
2022-09-02T02:04:40.290Z,16.34
2022-09-02T02:05:40.278Z,16.44
2022-09-02T02:06:40.270Z,16.49
2022-09-02T02:07:40.257Z,16.49
2022-09-02T02:08:40.242Z,16.49
2022-09-02T02:09:40.242Z,16.48
2022-09-02T02:10:40.224Z,16.60
2022-09-02T02:11:40.220Z,16.72
2022-09-02T02:12:46.208Z,16.66
2022-09-02T02:13:40.193Z,16.60
2022-09-02T02:14:40.179Z,16.55
2022-09-02T02:15:40.178Z,16.45
2022-09-02T02:16:40.216Z,16.30
2022-09-02T02:17:40.149Z,16.24
2022-09-02T02:18:40.144Z,16.11
2022-09-02T02:19:40.128Z,16.01
2022-09-02T02:20:40.121Z,15.94
2022-09-02T02:21:40.109Z,15.90
2022-09-02T02:22:40.094Z,15.97
2022-09-02T02:23:40.083Z,15.93
2022-09-02T02:24:40.075Z,15.92
2022-09-02T02:25:40.165Z,15.90
2022-09-02T02:26:40.049Z,15.84
2022-09-02T02:27:40.047Z,15.87
2022-09-02T02:28:40.031Z,16.09
2022-09-02T02:29:40.028Z,16.11
2022-09-02T02:30:40.009Z,16.09
2022-09-02T02:31:40.070Z,16.02
2022-09-02T02:32:39.985Z,15.96
2022-09-02T02:33:39.980Z,15.86
2022-09-02T02:34:40.095Z,15.80
2022-09-02T02:35:39.955Z,15.71
2022-09-02T02:36:39.951Z,15.60
2022-09-02T02:37:39.935Z,15.60
2022-09-02T02:38:39.924Z,15.76
2022-09-02T02:39:39.918Z,15.87
2022-09-02T02:40:40.001Z,15.89
2022-09-02T02:41:39.892Z,15.86
2022-09-02T02:42:39.884Z,15.80
2022-09-02T02:43:39.870Z,15.75
2022-09-02T02:44:39.857Z,15.69
2022-09-02T02:45:39.854Z,15.62
2022-09-02T02:46:39.916Z,15.57
2022-09-02T02:47:39.825Z,15.53
2022-09-02T02:48:39.827Z,15.49
2022-09-02T02:49:39.802Z,15.43
2022-09-02T02:50:39.794Z,15.37
2022-09-02T02:51:39.783Z,15.34
2022-09-02T02:52:39.775Z,15.31
2022-09-02T02:53:39.767Z,15.30
2022-09-02T02:54:39.754Z,15.28
2022-09-02T02:55:39.741Z,15.20
2022-09-02T02:56:39.730Z,15.16
2022-09-02T02:57:39.716Z,15.09
2022-09-02T02:58:39.707Z,15.05
2022-09-02T02:59:39.700Z,15.05
2022-09-02T03:00:39.688Z,15.06
2022-09-02T03:01:39.778Z,15.08
2022-09-02T03:02:39.771Z,15.06
2022-09-02T03:03:39.658Z,15.01
2022-09-02T03:04:39.644Z,15.08
2022-09-02T03:05:39.634Z,15.06
2022-09-02T03:06:39.622Z,15.09
2022-09-02T03:07:39.626Z,15.13
2022-09-02T03:08:39.601Z,15.10
2022-09-02T03:09:39.596Z,15.13
2022-09-02T03:10:39.580Z,15.12
2022-09-02T03:11:39.576Z,15.10
2022-09-02T03:12:39.566Z,15.05
2022-09-02T03:13:39.548Z,15.02
2022-09-02T03:14:39.538Z,15.20
2022-09-02T03:15:39.640Z,15.27
2022-09-02T03:16:39.517Z,15.38
2022-09-02T03:17:39.507Z,15.38
2022-09-02T03:18:39.497Z,15.40
2022-09-02T03:19:39.484Z,15.46
2022-09-02T03:20:39.473Z,15.50
2022-09-02T03:21:39.499Z,15.57
2022-09-02T03:22:39.449Z,15.56
2022-09-02T03:23:39.440Z,15.62
2022-09-02T03:24:39.429Z,15.59
2022-09-02T03:25:39.422Z,15.56
2022-09-02T03:26:39.411Z,15.57
2022-09-02T03:27:39.400Z,15.54
2022-09-02T03:28:39.384Z,15.49
2022-09-02T03:29:39.379Z,15.43
2022-09-02T03:30:39.367Z,15.45
2022-09-02T03:31:39.628Z,15.76
2022-09-02T03:32:39.341Z,15.80
2022-09-02T03:33:39.335Z,15.71
2022-09-02T03:34:39.323Z,15.68
2022-09-02T03:35:39.308Z,15.60
2022-09-02T03:36:39.301Z,15.53
2022-09-02T03:37:39.292Z,15.50
2022-09-02T03:38:41.333Z,15.37
2022-09-02T03:39:39.272Z,15.34
2022-09-02T03:40:39.356Z,15.40
2022-09-02T03:41:39.247Z,15.30
2022-09-02T03:42:39.236Z,15.31
2022-09-02T03:43:39.231Z,15.22
2022-09-02T03:44:39.212Z,15.12
2022-09-02T03:45:39.309Z,15.10
2022-09-02T03:46:39.192Z,15.09
2022-09-02T03:47:39.180Z,15.16
2022-09-02T03:48:39.171Z,15.20
2022-09-02T03:49:39.159Z,15.22
2022-09-02T03:50:39.152Z,15.22
2022-09-02T03:51:39.139Z,15.27
2022-09-02T03:52:39.128Z,15.20
2022-09-02T03:53:39.116Z,15.16
2022-09-02T03:54:39.107Z,15.13
2022-09-02T03:55:39.104Z,15.13
2022-09-02T03:56:39.090Z,15.18
2022-09-02T03:57:39.076Z,15.22
2022-09-02T03:58:39.077Z,15.24
2022-09-02T03:59:39.098Z,15.37
2022-09-02T04:00:39.045Z,15.51
2022-09-02T04:01:39.117Z,15.46
2022-09-02T04:02:39.245Z,15.51
2022-09-02T04:03:39.020Z,15.57
2022-09-02T04:04:39.002Z,15.57
2022-09-02T04:05:38.987Z,15.54
2022-09-02T04:06:44.982Z,15.46
2022-09-02T04:07:38.968Z,15.35
2022-09-02T04:08:38.953Z,15.38
2022-09-02T04:09:41.482Z,15.42
2022-09-02T04:10:38.935Z,15.42
2022-09-02T04:11:38.919Z,15.35
2022-09-02T04:12:38.910Z,15.42
2022-09-02T04:13:38.902Z,15.37
2022-09-02T04:14:38.893Z,15.31
2022-09-02T04:15:38.928Z,15.26
2022-09-02T04:16:38.867Z,15.27
2022-09-02T04:17:38.858Z,15.26
2022-09-02T04:18:38.796Z,15.16
2022-09-02T04:19:38.845Z,15.19
2022-09-02T04:20:38.785Z,15.13
2022-09-02T04:21:38.761Z,15.12
2022-09-02T04:22:38.805Z,15.05
2022-09-02T04:23:38.793Z,15.06
2022-09-02T04:24:38.743Z,15.05
2022-09-02T04:25:38.717Z,14.98
2022-09-02T04:26:38.888Z,15.00
2022-09-02T04:27:39.979Z,14.94
2022-09-02T04:28:38.692Z,14.87
2022-09-02T04:29:38.675Z,14.83
2022-09-02T04:30:38.667Z,14.73
2022-09-02T04:31:38.722Z,14.69
2022-09-02T04:32:40.876Z,14.61
2022-09-02T04:33:38.629Z,14.60
2022-09-02T04:34:38.620Z,14.50
2022-09-02T04:35:38.611Z,14.45
2022-09-02T04:36:38.602Z,14.36
2022-09-02T04:37:38.618Z,14.39
2022-09-02T04:38:38.578Z,14.45
2022-09-02T04:39:38.565Z,14.40
2022-09-02T04:40:38.614Z,14.45
2022-09-02T04:41:38.543Z,14.55
2022-09-02T04:42:38.533Z,14.61
2022-09-02T04:43:38.524Z,14.65
2022-09-02T04:44:38.511Z,14.69
2022-09-02T04:45:38.502Z,14.82
2022-09-02T04:46:38.614Z,14.90
2022-09-02T04:47:38.479Z,14.95
2022-09-02T04:48:38.469Z,14.95
2022-09-02T04:49:38.461Z,14.98
2022-09-02T04:50:38.449Z,14.97
2022-09-02T04:51:38.444Z,14.93
2022-09-02T04:52:38.429Z,14.94
2022-09-02T04:53:38.422Z,14.95
2022-09-02T04:54:38.405Z,14.88
2022-09-02T04:55:38.393Z,14.85
2022-09-02T04:56:38.389Z,14.80
2022-09-02T04:57:38.376Z,14.68
2022-09-02T04:58:38.364Z,14.62
2022-09-02T04:59:38.351Z,14.61
2022-09-02T05:00:38.339Z,14.55
2022-09-02T05:01:38.474Z,14.51
2022-09-02T05:02:38.381Z,14.47
2022-09-02T05:03:38.309Z,14.42
2022-09-02T05:04:38.444Z,14.36
2022-09-02T05:05:38.289Z,14.35
2022-09-02T05:06:42.008Z,14.29
2022-09-02T05:07:38.266Z,14.24
2022-09-02T05:08:38.254Z,14.18
2022-09-02T05:09:38.245Z,14.15
2022-09-02T05:10:38.235Z,14.07
2022-09-02T05:11:38.222Z,14.06
2022-09-02T05:12:38.208Z,14.01
2022-09-02T05:13:38.196Z,13.94
2022-09-02T05:14:38.198Z,13.91
2022-09-02T05:15:38.215Z,13.87
2022-09-02T05:16:38.165Z,13.84
2022-09-02T05:17:38.154Z,13.84
2022-09-02T05:18:38.146Z,13.83
2022-09-02T05:19:38.141Z,13.81
2022-09-02T05:20:44.132Z,13.78
2022-09-02T05:21:38.109Z,13.88
2022-09-02T05:22:38.100Z,13.90
2022-09-02T05:23:38.098Z,13.90
2022-09-02T05:24:38.084Z,13.91
2022-09-02T05:25:38.069Z,13.95
2022-09-02T05:26:38.067Z,13.96
2022-09-02T05:27:38.049Z,13.95
2022-09-02T05:28:38.041Z,13.99
2022-09-02T05:29:38.035Z,14.01
2022-09-02T05:30:38.017Z,14.02
2022-09-02T05:31:38.006Z,14.01
2022-09-02T05:32:38.217Z,14.01
2022-09-02T05:33:37.985Z,13.98
2022-09-02T05:34:37.974Z,13.98
2022-09-02T05:35:37.960Z,13.96
2022-09-02T05:36:37.949Z,13.95
2022-09-02T05:37:37.941Z,13.98
2022-09-02T05:38:37.930Z,13.99
2022-09-02T05:39:37.914Z,14.03
2022-09-02T05:40:37.986Z,14.12
2022-09-02T05:41:37.945Z,14.17
2022-09-02T05:42:37.884Z,14.20
2022-09-02T05:43:37.874Z,14.40
2022-09-02T05:44:37.872Z,14.55
2022-09-02T05:45:37.925Z,14.68
2022-09-02T05:46:37.839Z,14.73
2022-09-02T05:47:37.836Z,14.72
2022-09-02T05:48:37.820Z,14.73
2022-09-02T05:49:37.807Z,14.83
2022-09-02T05:50:37.796Z,15.00
2022-09-02T05:51:37.787Z,15.15
2022-09-02T05:52:37.781Z,15.26
2022-09-02T05:53:37.764Z,15.24
2022-09-02T05:54:37.759Z,15.42
2022-09-02T05:55:37.743Z,15.72
2022-09-02T05:56:37.738Z,15.90
2022-09-02T05:57:37.725Z,15.87
2022-09-02T05:58:37.713Z,15.86
2022-09-02T05:59:37.700Z,15.84
2022-09-02T06:00:37.687Z,15.89
2022-09-02T06:01:37.691Z,15.97
2022-09-02T06:02:37.720Z,16.07
2022-09-02T06:03:37.656Z,16.12
2022-09-02T06:04:37.645Z,16.32
2022-09-02T06:05:37.633Z,16.55
2022-09-02T06:06:37.829Z,16.78
2022-09-02T06:07:37.612Z,17.34
2022-09-02T06:08:37.602Z,17.70
2022-09-02T06:09:37.594Z,18.11
2022-09-02T06:10:37.582Z,18.70
2022-09-02T06:11:37.571Z,19.09
2022-09-02T06:12:42.416Z,19.00
2022-09-02T06:13:37.550Z,18.90
2022-09-02T06:14:37.540Z,18.66
2022-09-02T06:15:37.595Z,18.54
2022-09-02T06:16:37.523Z,18.37
2022-09-02T06:17:37.505Z,18.17
2022-09-02T06:18:37.498Z,18.06
2022-09-02T06:19:37.483Z,18.26
2022-09-02T06:20:37.476Z,18.85
2022-09-02T06:21:37.464Z,19.20
2022-09-02T06:22:37.449Z,19.18
2022-09-02T06:23:37.443Z,19.43
2022-09-02T06:24:37.430Z,19.73
2022-09-02T06:25:37.429Z,19.73
2022-09-02T06:26:37.408Z,19.50
2022-09-02T06:27:37.417Z,19.35
2022-09-02T06:28:37.392Z,19.36
2022-09-02T06:29:37.388Z,19.57
2022-09-02T06:30:37.390Z,19.88
2022-09-02T06:31:37.365Z,20.13
2022-09-02T06:32:37.348Z,20.63
2022-09-02T06:33:37.332Z,21.67
2022-09-02T06:34:37.336Z,22.67
2022-09-02T06:35:37.327Z,23.53
2022-09-02T06:36:37.309Z,24.47
2022-09-02T06:37:37.290Z,25.37
2022-09-02T06:38:37.276Z,26.06
2022-09-02T06:39:37.268Z,26.66
2022-09-02T06:40:37.547Z,27.09
2022-09-02T06:41:37.249Z,26.91
2022-09-02T06:42:37.236Z,27.34
2022-09-02T06:43:39.969Z,27.31
2022-09-02T06:44:37.215Z,27.64
2022-09-02T06:45:37.208Z,27.89
2022-09-02T06:46:37.239Z,27.19
2022-09-02T06:47:37.184Z,27.06
2022-09-02T06:48:37.192Z,27.59
2022-09-02T06:49:37.167Z,28.05
2022-09-02T06:50:37.150Z,28.37
2022-09-02T06:51:37.341Z,27.27
2022-09-02T06:52:37.128Z,27.81
2022-09-02T06:53:37.120Z,28.48
2022-09-02T06:54:37.107Z,28.61
2022-09-02T06:55:37.095Z,27.93
2022-09-02T06:56:37.082Z,28.37
2022-09-02T06:57:37.077Z,28.58
2022-09-02T06:58:37.267Z,28.33
2022-09-02T06:59:43.061Z,27.99
2022-09-02T07:00:37.042Z,28.37
2022-09-02T07:01:37.324Z,28.74
2022-09-02T07:02:37.024Z,29.01
2022-09-02T07:03:37.008Z,29.32
2022-09-02T07:04:37.001Z,29.56
2022-09-02T07:05:36.989Z,28.92
2022-09-02T07:06:36.978Z,28.77
2022-09-02T07:07:36.994Z,28.21
2022-09-02T07:08:36.967Z,26.99
2022-09-02T07:09:36.945Z,27.31
2022-09-02T07:10:36.935Z,27.69
2022-09-02T07:11:36.919Z,28.10
2022-09-02T07:12:36.916Z,27.73
2022-09-02T07:13:36.899Z,27.22
2022-09-02T07:14:36.894Z,26.59
2022-09-02T07:15:36.880Z,26.87
2022-09-02T07:16:36.977Z,27.25
2022-09-02T07:17:36.863Z,27.89
2022-09-02T07:18:36.854Z,28.01
2022-09-02T07:19:42.845Z,28.20
2022-09-02T07:20:36.831Z,28.52
2022-09-02T07:21:36.816Z,28.18
2022-09-02T07:22:36.818Z,27.86
2022-09-02T07:23:40.580Z,27.77
2022-09-02T07:24:36.781Z,27.76
2022-09-02T07:25:36.779Z,27.83
2022-09-02T07:26:36.762Z,28.26
2022-09-02T07:27:42.765Z,28.48
2022-09-02T07:28:36.745Z,27.91
2022-09-02T07:29:36.731Z,28.10
2022-09-02T07:30:36.776Z,27.64
2022-09-02T07:31:36.708Z,27.22
2022-09-02T07:32:36.696Z,27.37
2022-09-02T07:33:36.691Z,27.03
2022-09-02T07:34:42.683Z,27.22
2022-09-02T07:35:36.667Z,27.22
2022-09-02T07:36:36.660Z,27.58
2022-09-02T07:37:36.645Z,27.47
2022-09-02T07:38:36.844Z,27.73
2022-09-02T07:39:36.622Z,27.47
2022-09-02T07:40:36.731Z,27.00
2022-09-02T07:41:36.604Z,27.03
2022-09-02T07:42:36.595Z,27.56
2022-09-02T07:43:36.585Z,27.78
2022-09-02T07:44:36.575Z,28.03
2022-09-02T07:45:36.629Z,28.76
2022-09-02T07:46:36.754Z,29.35
2022-09-02T07:47:36.805Z,28.55
2022-09-02T07:48:42.540Z,28.99
2022-09-02T07:50:36.507Z,30.76
2022-09-02T07:51:36.497Z,30.96
2022-09-02T07:52:36.485Z,31.73
2022-09-02T07:53:42.486Z,31.00
2022-09-02T07:54:36.465Z,31.28
2022-09-02T07:55:36.454Z,31.48
2022-09-02T07:56:36.445Z,30.11
2022-09-02T07:57:36.432Z,30.60
2022-09-02T07:58:36.427Z,30.32
2022-09-02T07:59:36.465Z,29.80
2022-09-02T08:00:36.406Z,30.24
2022-09-02T08:01:36.623Z,30.54
2022-09-02T08:02:36.438Z,31.61
2022-09-02T08:03:36.377Z,32.24
2022-09-02T08:04:36.369Z,32.12
2022-09-02T08:05:36.354Z,31.99
2022-09-02T08:06:36.342Z,32.10
2022-09-02T08:07:42.339Z,32.36
2022-09-02T08:08:36.320Z,31.95
2022-09-02T08:09:36.308Z,30.54
2022-09-02T08:10:42.310Z,29.66
2022-09-02T08:11:36.290Z,28.08
2022-09-02T08:12:36.286Z,28.76
2022-09-02T08:13:36.315Z,30.02
2022-09-02T08:14:36.258Z,30.42
2022-09-02T08:15:36.256Z,29.44
2022-09-02T08:16:42.313Z,30.27
2022-09-02T08:17:36.229Z,30.38
2022-09-02T08:18:36.225Z,30.39
2022-09-02T08:19:36.431Z,31.31
2022-09-02T08:20:36.196Z,32.07
2022-09-02T08:21:36.184Z,31.81
2022-09-02T08:22:36.182Z,30.69
2022-09-02T08:23:37.431Z,30.39
2022-09-02T08:25:10.850Z,31.26
2022-09-02T08:26:10.825Z,31.25
2022-09-02T08:27:10.819Z,31.38
2022-09-02T08:28:10.813Z,30.72
2022-09-02T08:29:10.812Z,29.95
2022-09-02T08:30:10.799Z,29.51
2022-09-02T08:31:10.782Z,29.86
2022-09-02T08:32:10.888Z,30.11
2022-09-02T08:33:10.758Z,30.38
2022-09-02T08:34:10.753Z,31.14
2022-09-02T08:35:10.852Z,31.31
2022-09-02T08:36:10.733Z,30.76
2022-09-02T08:37:10.926Z,31.08
2022-09-02T08:38:10.713Z,31.38
2022-09-02T08:39:10.702Z,31.06
2022-09-02T08:40:10.765Z,31.48
2022-09-02T08:41:10.680Z,31.50
2022-09-02T08:42:10.679Z,31.80
2022-09-02T08:43:10.664Z,31.44
2022-09-02T08:44:16.665Z,31.95
2022-09-02T08:45:10.646Z,31.66
2022-09-02T08:46:10.746Z,31.14
2022-09-02T08:47:10.626Z,30.93
2022-09-02T08:48:10.618Z,31.47
2022-09-02T08:49:10.606Z,30.69
2022-09-02T08:50:45.285Z,31.21
2022-09-02T08:51:45.274Z,31.36
2022-09-02T08:52:45.265Z,30.64
2022-09-02T08:53:45.254Z,30.23
2022-09-02T08:54:45.240Z,30.72
2022-09-02T08:55:45.229Z,31.17
2022-09-02T08:56:45.248Z,30.27
2022-09-02T08:57:45.213Z,30.07
2022-09-02T08:58:45.205Z,30.16
2022-09-02T08:59:45.409Z,30.26
2022-09-02T09:00:45.211Z,30.38
2022-09-02T09:01:45.287Z,31.01
2022-09-02T09:02:47.685Z,30.60
2022-09-02T09:03:45.156Z,31.29
2022-09-02T09:04:45.152Z,31.09
2022-09-02T09:05:45.146Z,30.81
2022-09-02T09:06:45.130Z,30.41
2022-09-02T09:07:45.119Z,30.24
2022-09-02T09:08:45.115Z,30.81
2022-09-02T09:09:45.101Z,31.36
2022-09-02T09:10:45.096Z,31.17
2022-09-02T09:11:45.293Z,31.03
2022-09-02T09:12:45.083Z,30.71
2022-09-02T09:13:45.067Z,30.38
2022-09-02T09:14:45.060Z,30.83
2022-09-02T09:15:45.164Z,30.24
2022-09-02T09:16:45.126Z,30.13
2022-09-02T09:17:45.027Z,30.35
2022-09-02T09:18:51.026Z,30.59
2022-09-02T09:19:45.008Z,30.85
2022-09-02T09:20:44.997Z,31.70
2022-09-02T09:21:44.991Z,31.63
2022-09-02T09:22:44.983Z,31.90
2022-09-02T09:23:44.974Z,31.56
2022-09-02T09:24:50.970Z,31.46
2022-09-02T09:25:44.954Z,31.56
2022-09-02T09:26:44.945Z,31.08
2022-09-02T09:27:50.954Z,31.84
2022-09-02T09:28:44.923Z,32.51
2022-09-02T09:29:44.921Z,32.92
2022-09-02T09:30:44.908Z,32.88
2022-09-02T09:31:44.973Z,33.31
2022-09-02T09:32:44.894Z,33.12
2022-09-02T09:33:44.880Z,32.59
2022-09-02T09:34:51.079Z,32.02
2022-09-02T09:35:51.069Z,32.55
2022-09-02T09:36:45.059Z,32.67
2022-09-02T09:37:44.845Z,32.96
2022-09-02T09:38:44.834Z,32.40
2022-09-02T09:39:44.825Z,32.02
2022-09-02T09:40:44.923Z,32.12
2022-09-02T09:41:44.814Z,31.47
2022-09-02T09:42:49.210Z,31.53
2022-09-02T09:43:44.789Z,31.39
2022-09-02T09:44:45.114Z,31.05
2022-09-02T09:45:44.841Z,31.51
2022-09-02T09:46:44.765Z,31.54
2022-09-02T09:47:44.763Z,32.00
2022-09-02T09:48:45.784Z,32.32
2022-09-02T09:49:44.738Z,32.62
2022-09-02T09:50:44.931Z,31.85
2022-09-02T09:51:50.043Z,32.10
2022-09-02T09:52:50.721Z,31.70
2022-09-02T09:53:44.706Z,32.12
2022-09-02T09:54:44.791Z,32.17
2022-09-02T09:55:50.694Z,31.70
2022-09-02T09:56:44.678Z,31.72
2022-09-02T09:57:45.656Z,31.31
2022-09-02T09:58:44.660Z,31.47
2022-09-02T09:59:44.650Z,31.90
2022-09-02T10:00:44.688Z,32.37
2022-09-02T10:01:44.896Z,32.69
2022-09-02T10:02:44.693Z,33.28
2022-09-02T10:03:44.624Z,33.03
2022-09-02T10:04:44.949Z,33.60
2022-09-02T10:05:44.601Z,33.33
2022-09-02T10:06:44.594Z,32.63
2022-09-02T10:07:45.271Z,32.57
2022-09-02T10:08:44.578Z,32.67
2022-09-02T10:09:50.778Z,33.60
2022-09-02T10:10:44.562Z,33.46
2022-09-02T10:11:44.561Z,33.81
2022-09-02T10:12:44.540Z,33.97
2022-09-02T10:13:50.548Z,34.84
2022-09-02T10:14:44.526Z,33.27
2022-09-02T10:15:44.526Z,33.31
2022-09-02T10:16:44.580Z,32.70
2022-09-02T10:17:44.499Z,33.04
2022-09-02T10:18:50.501Z,33.46
2022-09-02T10:19:44.488Z,33.23
2022-09-02T10:20:58.452Z,33.53
2022-09-02T10:21:51.559Z,32.78
2022-09-02T10:22:58.942Z,32.40
2022-09-02T10:23:45.487Z,32.93
2022-09-02T10:24:44.441Z,32.57
2022-09-02T10:25:44.438Z,33.15
2022-09-02T10:26:50.435Z,33.15
2022-09-02T10:27:44.421Z,32.81
2022-09-02T10:28:44.413Z,32.55
2022-09-02T10:29:44.404Z,33.07
2022-09-02T10:30:44.420Z,33.30
2022-09-02T10:31:44.453Z,33.15
2022-09-02T10:32:44.987Z,33.93
2022-09-02T10:33:44.383Z,33.19
2022-09-02T10:34:44.367Z,33.58
2022-09-02T10:35:44.354Z,34.09
2022-09-02T10:36:44.350Z,33.31
2022-09-02T10:37:44.341Z,33.04
2022-09-02T10:38:44.335Z,32.89
2022-09-02T10:39:44.325Z,33.12
2022-09-02T10:40:44.369Z,33.68
2022-09-02T10:42:44.505Z,33.58
2022-09-02T10:43:44.291Z,34.12
2022-09-02T10:44:50.289Z,33.55
2022-09-02T10:45:44.281Z,33.37
2022-09-02T10:46:44.304Z,32.28
2022-09-02T10:47:44.326Z,31.85
2022-09-02T10:48:44.259Z,32.17
2022-09-02T10:49:44.250Z,32.65
2022-09-02T10:50:46.726Z,32.47
2022-09-02T10:51:44.243Z,32.34
2022-09-02T10:52:44.226Z,32.46
2022-09-02T10:53:44.222Z,32.20
2022-09-02T10:54:44.212Z,33.07
2022-09-02T10:55:44.813Z,33.27
2022-09-02T10:56:44.197Z,32.60
2022-09-02T10:57:44.197Z,32.70
2022-09-02T10:58:44.407Z,33.19
2022-09-02T10:59:44.382Z,33.43
2022-09-02T11:00:44.238Z,33.85
2022-09-02T11:01:45.005Z,33.68
2022-09-02T11:02:44.161Z,33.65
2022-09-02T11:03:44.160Z,33.68
2022-09-02T11:04:44.139Z,33.37
2022-09-02T11:05:44.339Z,33.67
2022-09-02T11:07:01.909Z,33.65
2022-09-02T11:08:48.040Z,32.65
2022-09-02T11:09:48.022Z,32.82
2022-09-02T11:10:48.014Z,33.22
2022-09-02T11:11:48.011Z,33.70
2022-09-02T11:12:48.003Z,34.54
2022-09-02T11:13:49.994Z,33.97
2022-09-02T11:14:47.987Z,33.50
2022-09-02T11:15:48.234Z,33.09
2022-09-02T11:16:48.174Z,32.92
2022-09-02T11:17:47.970Z,33.72
2022-09-02T11:18:47.961Z,33.12
2022-09-02T11:19:47.953Z,33.31
2022-09-02T11:20:47.953Z,33.58
2022-09-02T11:21:47.943Z,34.27
2022-09-02T11:22:47.933Z,33.74
2022-09-02T11:23:47.927Z,33.16
2022-09-02T11:24:47.980Z,33.00
2022-09-02T11:25:54.120Z,33.06
2022-09-02T11:26:47.911Z,33.06
2022-09-02T11:27:47.897Z,32.89
2022-09-02T11:28:48.097Z,33.06
2022-09-02T11:29:47.885Z,33.11
2022-09-02T11:31:22.571Z,33.59
2022-09-02T11:32:22.554Z,34.25
2022-09-02T11:33:22.686Z,34.08
2022-09-02T11:34:22.543Z,34.15
2022-09-02T11:35:22.536Z,33.64
2022-09-02T11:36:22.729Z,33.09
2022-09-02T11:37:28.529Z,33.15
2022-09-02T11:38:22.836Z,33.44
2022-09-02T11:39:36.253Z,33.90
2022-09-02T11:40:34.247Z,34.17
2022-09-02T11:41:38.951Z,34.49
2022-09-02T11:42:23.529Z,34.40
2022-09-02T11:43:22.689Z,34.06
2022-09-02T11:44:25.873Z,33.98
2022-09-02T11:45:22.818Z,33.46
2022-09-02T11:46:30.538Z,33.86
2022-09-02T11:47:22.465Z,33.50
2022-09-02T11:48:22.574Z,32.43
2022-09-02T11:49:22.450Z,32.63
2022-09-02T11:50:22.465Z,33.01
2022-09-02T11:51:22.459Z,33.62
2022-09-02T11:53:22.644Z,34.54
2022-09-02T11:54:22.624Z,34.49
2022-09-02T11:55:24.471Z,34.68
2022-09-02T11:56:29.053Z,34.24
2022-09-02T11:57:22.397Z,34.88
2022-09-02T11:58:22.390Z,34.77
2022-09-02T11:59:22.586Z,33.74
2022-09-02T12:00:22.383Z,33.55
2022-09-02T12:01:28.586Z,34.21
2022-09-02T12:02:22.378Z,34.98
2022-09-02T12:03:46.582Z,34.83
2022-09-02T12:05:41.152Z,33.31
2022-09-02T12:06:41.208Z,34.49
2022-09-02T12:07:41.031Z,34.93
2022-09-02T12:08:41.032Z,33.97
2022-09-02T12:09:47.536Z,34.15
2022-09-02T12:10:41.017Z,34.06
2022-09-02T12:11:41.211Z,33.56
2022-09-02T12:12:41.406Z,33.09
2022-09-02T12:13:41.137Z,33.58
2022-09-02T12:14:40.993Z,33.59
2022-09-02T12:15:41.522Z,33.85
2022-09-02T12:16:46.993Z,34.15
2022-09-02T12:17:40.981Z,34.53
2022-09-02T12:19:20.129Z,35.21
2022-09-02T12:20:25.915Z,35.01
2022-09-02T12:21:25.912Z,34.35
2022-09-02T12:22:20.101Z,33.71
2022-09-02T12:23:19.900Z,33.31
2022-09-02T12:24:19.886Z,33.71
2022-09-02T12:25:19.897Z,34.09
2022-09-02T12:26:58.835Z,33.59
2022-09-02T12:27:58.617Z,33.80
2022-09-02T12:29:00.681Z,33.67
2022-09-02T12:29:58.606Z,33.65
2022-09-02T12:31:51.679Z,33.21
2022-09-02T12:32:55.520Z,33.40
2022-09-02T12:33:49.296Z,33.86
2022-09-02T12:34:49.293Z,33.28
2022-09-02T12:35:49.290Z,32.87
2022-09-02T12:36:49.482Z,32.66
2022-09-02T12:37:49.276Z,32.39
2022-09-02T12:38:49.268Z,32.74
2022-09-02T12:39:49.263Z,32.55
2022-09-02T12:40:49.587Z,32.05
2022-09-02T12:41:49.461Z,32.05
2022-09-02T12:42:49.246Z,32.21
2022-09-02T12:43:49.243Z,32.55
2022-09-02T12:45:32.254Z,32.81
2022-09-02T12:46:34.145Z,33.04
2022-09-02T12:47:38.035Z,32.70
2022-09-02T12:48:38.699Z,32.97
2022-09-02T12:49:38.027Z,33.62
2022-09-02T12:50:32.016Z,33.62
2022-09-02T12:51:32.210Z,34.03
2022-09-02T12:53:06.694Z,33.62
2022-09-02T12:54:43.371Z,33.50
2022-09-02T12:55:49.360Z,32.78
2022-09-02T12:56:51.361Z,33.15
2022-09-02T12:57:43.350Z,32.94
2022-09-02T12:58:43.346Z,32.72
2022-09-02T12:59:43.336Z,32.72
2022-09-02T13:00:43.327Z,32.47
2022-09-02T13:01:43.561Z,33.00
2022-09-02T13:02:49.729Z,32.99
2022-09-02T13:03:43.327Z,32.84